Time;durP1;ratioP1;P1;durP2;ratioP2;P2;SDS_P1;SDS_P2;PMS_P1;PMS_P2;Temp;Humidity;BMP_temperature;BMP_pressure;BME280_temperature;BME280_humidity;BME280_pressure;Samples;Min_cycle;Max_cycle;Signal;HPM_P1;HPM_P2
2022/05/22 00:01:30;;;;;;;1.83;1.50;;;8.80;99.90;;;;;;4195786;28;20204;-70
2022/05/22 00:03:30;;;;;;;2.30;1.43;;;8.80;99.90;;;;;;4195993;28;20459;-70
2022/05/22 00:05:31;;;;;;;3.23;1.63;;;8.70;99.90;;;;;;4195019;28;20200;-70
2022/05/22 00:07:31;;;;;;;2.70;1.60;;;8.80;99.90;;;;;;4195800;28;20703;-70
2022/05/22 00:09:33;;;;;;;1.83;1.60;;;8.80;99.90;;;;;;4195596;28;20542;-70
2022/05/22 00:11:34;;;;;;;3.07;1.57;;;8.70;99.90;;;;;;4195879;28;20201;-70
2022/05/22 00:13:34;;;;;;;2.73;2.07;;;8.70;99.90;;;;;;4195621;28;20789;-70
2022/05/22 00:15:41;;;;;;;3.43;1.90;;;8.60;99.90;;;;;;4193358;28;20207;-70
2022/05/22 00:17:42;;;;;;;2.20;1.37;;;8.60;99.90;;;;;;4195136;28;20157;-70
2022/05/22 00:19:43;;;;;;;2.40;1.37;;;8.60;99.90;;;;;;4195586;28;20406;-68
2022/05/22 00:21:43;;;;;;;2.80;1.50;;;8.70;99.90;;;;;;4194817;28;20315;-69
2022/05/22 00:23:44;;;;;;;2.83;1.63;;;8.60;99.90;;;;;;4195465;28;20727;-69
2022/05/22 00:25:45;;;;;;;2.17;1.80;;;8.60;99.90;;;;;;4194546;28;20706;-69
2022/05/22 00:27:45;;;;;;;3.60;1.60;;;8.60;99.90;;;;;;4195442;28;20290;-69
2022/05/22 00:29:46;;;;;;;2.37;1.50;;;8.60;99.90;;;;;;4195598;28;20175;-70
2022/05/22 00:31:47;;;;;;;2.77;1.70;;;8.70;99.90;;;;;;4195152;28;20214;-70
2022/05/22 00:33:47;;;;;;;1.57;1.40;;;8.70;99.90;;;;;;4195418;28;20207;-70
2022/05/22 00:35:48;;;;;;;2.37;1.73;;;8.60;99.90;;;;;;4194837;28;20746;-69
2022/05/22 00:37:48;;;;;;;2.47;1.67;;;8.60;99.90;;;;;;4195532;28;20650;-69
2022/05/22 00:39:49;;;;;;;3.10;1.80;;;8.50;99.90;;;;;;4195616;28;20187;-70
2022/05/22 00:41:53;;;;;;;2.47;1.50;;;8.50;99.90;;;;;;4195131;28;20187;-70
2022/05/22 00:43:55;;;;;;;2.70;1.57;;;8.50;99.90;;;;;;4195417;28;20176;-70
2022/05/22 00:45:57;;;;;;;2.37;1.57;;;8.50;99.90;;;;;;4194763;28;20917;-70
2022/05/22 00:47:57;;;;;;;1.80;1.47;;;8.40;99.90;;;;;;4194106;28;20457;-70
2022/05/22 00:50:00;;;;;;;2.30;1.60;;;8.40;99.90;;;;;;4195274;28;20415;-71
2022/05/22 00:52:24;;;;;;;1.80;1.50;;;8.50;99.90;;;;;;4210950;28;20203;-70
2022/05/22 00:54:29;;;;;;;1999.90;999.90;;;8.40;99.90;;;;;;4195175;28;20421;-70
2022/05/22 00:56:38;;;;;;;2.10;1.90;;;8.40;99.90;;;;;;4194765;28;20461;-70
2022/05/22 00:58:41;;;;;;;2.70;1.97;;;8.40;99.90;;;;;;4195331;28;20399;-70
2022/05/22 01:00:41;;;;;;;2.80;2.00;;;8.40;99.90;;;;;;4195159;28;20422;-70
2022/05/22 01:05:02;;;;;;;2.27;1.73;;;8.30;99.90;;;;;;4194967;28;20244;-70
2022/05/22 01:07:06;;;;;;;2.90;2.33;;;8.30;99.90;;;;;;4194822;28;20406;-70
2022/05/22 01:09:06;;;;;;;2.73;1.80;;;8.40;99.90;;;;;;4195079;28;20172;-70
2022/05/22 01:11:23;;;;;;;2.33;2.07;;;8.30;99.90;;;;;;4194943;28;20912;-70
2022/05/22 01:13:29;;;;;;;2.30;2.10;;;8.30;99.90;;;;;;4195286;28;20164;-70
2022/05/22 01:15:30;;;;;;;179.10;30.13;;;8.30;99.90;;;;;;4194381;28;20974;-70
2022/05/22 01:17:39;;;;;;;3.40;1.60;;;8.20;99.90;;;;;;4195158;28;20414;-71
2022/05/22 01:19:39;;;;;;;2.97;1.27;;;8.20;99.90;;;;;;4195088;28;20170;-70
2022/05/22 01:21:40;;;;;;;2.03;1.50;;;8.30;99.90;;;;;;4194635;28;20854;-69
2022/05/22 01:23:42;;;;;;;1.30;1.20;;;8.30;99.90;;;;;;4195030;28;20205;-70
2022/05/22 01:25:42;;;;;;;1.97;1.60;;;8.20;99.90;;;;;;4194356;28;20417;-70
2022/05/22 01:27:43;;;;;;;2.03;1.50;;;8.20;99.90;;;;;;4195021;28;20428;-70
2022/05/22 01:29:43;;;;;;;3.43;1.60;;;8.20;99.90;;;;;;4195094;28;20210;-70
2022/05/22 01:31:44;;;;;;;933.47;574.40;;;8.10;99.90;;;;;;4194958;28;20227;-70
2022/05/22 01:33:45;;;;;;;2.17;1.80;;;8.10;99.90;;;;;;4195005;28;20210;-70
2022/05/22 01:35:46;;;;;;;5.03;1.70;;;8.10;99.90;;;;;;4192942;28;20294;-70
2022/05/22 01:37:48;;;;;;;2.87;1.60;;;8.10;99.90;;;;;;4194579;28;20185;-70
2022/05/22 01:39:48;;;;;;;1.63;1.53;;;8.10;99.90;;;;;;4195013;28;20172;-70
2022/05/22 01:41:49;;;;;;;1.70;1.60;;;8.00;99.90;;;;;;4194608;28;20941;-70
2022/05/22 01:43:49;;;;;;;2.73;1.67;;;8.00;99.90;;;;;;4194759;28;20194;-70
2022/05/22 01:45:50;;;;;;;1.60;1.43;;;8.00;99.90;;;;;;4194092;28;20176;-70
2022/05/22 01:47:51;;;;;;;2.60;1.70;;;8.00;99.90;;;;;;4194497;28;20827;-70
2022/05/22 01:49:51;;;;;;;3.20;1.60;;;8.00;99.90;;;;;;4194698;28;20222;-70
2022/05/22 01:51:52;;;;;;;3.10;1.90;;;8.00;99.90;;;;;;4194771;28;20204;-70
2022/05/22 01:53:53;;;;;;;3.63;1.90;;;8.00;99.90;;;;;;4194656;28;20184;-71
2022/05/22 01:55:54;;;;;;;1.97;1.67;;;7.90;99.90;;;;;;4192622;28;20203;-70
2022/05/22 01:57:54;;;;;;;1.80;1.70;;;7.90;99.90;;;;;;4194627;28;20419;-70
2022/05/22 01:59:55;;;;;;;2.33;1.33;;;8.00;99.90;;;;;;4194837;28;20696;-70
2022/05/22 02:01:55;;;;;;;2.40;1.50;;;8.00;99.90;;;;;;4188611;28;20667;-71
2022/05/22 02:03:56;;;;;;;2.37;1.67;;;8.00;99.90;;;;;;4194448;28;20213;-70
2022/05/22 02:05:56;;;;;;;2.33;1.80;;;8.00;99.90;;;;;;4194199;28;20187;-70
2022/05/22 02:10:16;;;;;;;5.87;1.77;;;8.00;99.90;;;;;;4197387;28;20190;-70
2022/05/22 02:12:16;;;;;;;1.77;1.60;;;8.10;99.90;;;;;;4197940;28;20445;-70
2022/05/22 02:14:17;;;;;;;2.10;1.73;;;8.00;99.90;;;;;;4197280;28;20222;-70
2022/05/22 02:16:17;;;;;;;2.63;1.70;;;8.00;99.90;;;;;;4197024;28;20199;-70
2022/05/22 02:18:18;;;;;;;3.13;1.67;;;8.00;99.90;;;;;;4196173;28;20243;-70
2022/05/22 02:20:19;;;;;;;2.33;1.70;;;8.00;99.90;;;;;;4197205;28;20270;-69
2022/05/22 02:22:20;;;;;;;1.77;1.50;;;8.10;99.90;;;;;;4197438;28;20490;-70
2022/05/22 02:24:20;;;;;;;3.77;1.80;;;8.10;99.90;;;;;;4197466;28;20646;-70
2022/05/22 02:26:22;;;;;;;1.63;1.50;;;8.10;99.90;;;;;;4196744;28;20611;-70
2022/05/22 02:28:24;;;;;;;2.80;1.80;;;8.10;99.90;;;;;;4197255;28;20508;-70
2022/05/22 02:30:29;;;;;;;2.60;1.63;;;8.00;99.90;;;;;;4197253;28;20321;-70
2022/05/22 02:32:30;;;;;;;2.67;1.57;;;7.90;99.90;;;;;;4197439;28;21039;-70
2022/05/22 02:34:30;;;;;;;1.50;1.40;;;8.00;99.90;;;;;;4197343;28;20426;-70
2022/05/22 02:36:31;;;;;;;3.93;1.80;;;7.90;99.90;;;;;;4196509;28;20666;-70
2022/05/22 02:38:32;;;;;;;1.57;1.40;;;7.90;99.90;;;;;;4197297;28;20183;-70
2022/05/22 02:40:34;;;;;;;2.57;1.40;;;7.90;99.90;;;;;;4197253;28;20179;-70
2022/05/22 02:42:38;;;;;;;2.63;1.57;;;7.90;99.90;;;;;;4197518;28;20437;-70
2022/05/22 02:44:39;;;;;;;1.53;1.33;;;7.80;99.90;;;;;;4197136;28;20422;-70
2022/05/22 02:46:41;;;;;;;202.20;12.20;;;7.80;99.90;;;;;;4196348;28;20454;-70
2022/05/22 02:48:42;;;;;;;1.93;1.63;;;7.80;99.90;;;;;;4197145;28;20198;-70
2022/05/22 02:50:44;;;;;;;1.80;1.70;;;7.70;99.90;;;;;;4196973;28;20442;-70
2022/05/22 02:52:45;;;;;;;2.43;1.60;;;7.70;99.90;;;;;;4196939;28;20238;-70
2022/05/22 02:54:45;;;;;;;3.70;1.83;;;7.70;99.90;;;;;;4196870;28;20792;-70
2022/05/22 02:56:46;;;;;;;3.53;1.80;;;7.60;99.90;;;;;;4196039;28;20218;-70
2022/05/22 02:58:47;;;;;;;3.03;1.87;;;7.60;99.90;;;;;;4196650;28;20172;-70
2022/05/22 03:00:47;;;;;;;2.43;1.97;;;7.60;99.90;;;;;;4191129;28;20188;-70
2022/05/22 03:02:48;;;;;;;4.00;1.97;;;7.60;99.90;;;;;;4196244;28;20645;-70
2022/05/22 03:04:48;;;;;;;2.90;1.70;;;7.60;99.90;;;;;;4196700;28;20183;-70
2022/05/22 03:06:49;;;;;;;2.93;1.83;;;7.50;99.90;;;;;;4196171;28;20194;-70
2022/05/22 03:08:49;;;;;;;2.40;1.77;;;7.50;99.90;;;;;;4196638;28;20206;-70
2022/05/22 03:10:50;;;;;;;3.87;2.30;;;7.40;99.90;;;;;;4196625;28;20184;-70
2022/05/22 03:12:50;;;;;;;3.93;1.93;;;7.40;99.90;;;;;;4196432;28;20935;-70
2022/05/22 03:14:54;;;;;;;2.27;1.80;;;7.40;99.90;;;;;;4196458;28;20191;-70
2022/05/22 03:16:55;;;;;;;2.67;1.83;;;7.40;99.90;;;;;;4194479;28;20195;-70
2022/05/22 03:18:56;;;;;;;3.47;2.00;;;7.40;99.90;;;;;;4196215;28;20414;-70
2022/05/22 03:20:57;;;;;;;3.50;2.10;;;7.50;99.90;;;;;;4195410;28;20823;-70
2022/05/22 03:22:58;;;;;;;2.10;2.00;;;7.40;99.90;;;;;;4196565;28;20253;-70
2022/05/22 03:24:59;;;;;;;3.70;1.70;;;7.40;99.90;;;;;;4196012;28;20802;-70
2022/05/22 03:27:10;;;;;;;3.80;2.20;;;7.40;99.90;;;;;;4195890;28;20421;-70
2022/05/22 03:29:11;;;;;;;1.83;1.63;;;7.40;99.90;;;;;;4196324;28;20850;-70
2022/05/22 03:31:11;;;;;;;3.53;1.87;;;7.40;99.90;;;;;;4196102;28;20417;-70
2022/05/22 03:33:12;;;;;;;3.27;1.80;;;7.40;99.90;;;;;;4196369;28;20468;-70
2022/05/22 03:35:12;;;;;;;4.10;1.67;;;7.40;99.90;;;;;;4195835;28;20218;-70
2022/05/22 03:37:14;;;;;;;4.80;1.87;;;7.40;99.90;;;;;;4195881;28;20652;-70
2022/05/22 03:39:14;;;;;;;2.37;2.00;;;7.40;99.90;;;;;;4196119;28;20225;-70
2022/05/22 03:41:15;;;;;;;2.20;1.97;;;7.40;99.90;;;;;;4196130;28;20422;-70
2022/05/22 03:43:17;;;;;;;2.17;1.87;;;7.30;99.90;;;;;;4196327;28;20184;-70
2022/05/22 03:45:17;;;;;;;2.20;1.83;;;7.40;99.90;;;;;;4195903;28;20266;-70
2022/05/22 03:47:18;;;;;;;2.47;2.10;;;7.40;99.90;;;;;;4195940;28;20884;-70
2022/05/22 03:49:18;;;;;;;2.47;1.80;;;7.40;99.90;;;;;;4195420;28;20195;-70
2022/05/22 03:51:19;;;;;;;2.83;1.57;;;7.40;99.90;;;;;;4195925;28;20678;-70
2022/05/22 03:53:19;;;;;;;2.83;1.90;;;7.40;99.90;;;;;;4195949;28;20214;-70
2022/05/22 03:55:20;;;;;;;2.47;1.50;;;7.40;99.90;;;;;;4195251;28;20223;-70
2022/05/22 03:57:20;;;;;;;2.77;2.10;;;7.40;99.90;;;;;;4195683;28;20183;-70
2022/05/22 03:59:21;;;;;;;4.43;1.97;;;7.50;99.90;;;;;;4195566;28;20279;-69
2022/05/22 04:01:22;;;;;;;3.23;1.70;;;7.40;99.90;;;;;;4195496;28;20259;-70
2022/05/22 04:03:22;;;;;;;2.10;1.73;;;7.40;99.90;;;;;;4195795;28;20175;-70
2022/05/22 04:05:23;;;;;;;3.33;1.90;;;7.40;99.90;;;;;;4195062;28;20184;-70
2022/05/22 04:07:23;;;;;;;3.33;1.70;;;7.40;99.90;;;;;;4195713;28;20180;-70
2022/05/22 04:09:27;;;;;;;2.87;1.83;;;7.50;99.90;;;;;;4195891;28;20187;-70
2022/05/22 04:11:28;;;;;;;1.93;1.60;;;7.50;99.90;;;;;;4195718;28;20172;-70
2022/05/22 04:13:28;;;;;;;2.73;2.00;;;7.60;99.90;;;;;;4195382;28;20429;-70
2022/05/22 04:15:29;;;;;;;3.03;1.60;;;7.60;99.90;;;;;;4194699;28;20279;-70
2022/05/22 04:17:29;;;;;;;5.63;1.90;;;7.60;99.90;;;;;;4195020;28;20180;-70
2022/05/22 04:19:31;;;;;;;2.70;1.63;;;7.70;99.90;;;;;;4195161;28;20647;-70
2022/05/22 04:21:32;;;;;;;2.50;1.73;;;7.70;99.90;;;;;;4195119;28;20231;-70
2022/05/22 04:25:57;;;;;;;2.97;1.40;;;7.80;99.90;;;;;;4194556;28;20204;-70
2022/05/22 04:27:57;;;;;;;2.63;1.70;;;7.90;99.90;;;;;;4195081;28;20422;-70
2022/05/22 04:29:58;;;;;;;2.03;1.57;;;7.90;99.90;;;;;;4194954;28;20425;-70
2022/05/22 04:31:59;;;;;;;1.70;1.50;;;7.90;99.90;;;;;;4195055;28;20452;-70
2022/05/22 04:33:59;;;;;;;2.90;1.60;;;7.90;99.90;;;;;;4195319;28;20184;-70
2022/05/22 04:36:01;;;;;;;3.67;1.70;;;7.90;99.90;;;;;;4194515;28;20197;-68
2022/05/22 04:38:02;;;;;;;2.23;1.73;;;8.00;99.90;;;;;;4195120;28;20172;-70
2022/05/22 04:40:03;;;;;;;3.23;1.87;;;8.10;99.90;;;;;;4194981;28;20458;-70
2022/05/22 04:42:04;;;;;;;2.37;1.73;;;8.10;99.90;;;;;;4195001;28;20431;-68
2022/05/22 04:44:05;;;;;;;2.57;1.63;;;8.20;99.90;;;;;;4195137;28;20421;-70
2022/05/22 04:46:08;;;;;;;2.77;1.70;;;8.30;99.90;;;;;;4194268;28;20498;-70
2022/05/22 04:48:08;;;;;;;2.43;1.53;;;8.40;99.90;;;;;;4193727;28;20200;-70
2022/05/22 04:50:10;;;;;;;2.67;1.67;;;8.40;99.90;;;;;;4195078;28;20413;-70
2022/05/22 04:52:11;;;;;;;1.73;1.60;;;8.50;99.90;;;;;;4194989;28;20257;-70
2022/05/22 04:54:11;;;;;;;2.07;1.60;;;8.50;99.90;;;;;;4194837;28;21306;-70
2022/05/22 04:56:12;;;;;;;2.10;1.53;;;8.60;99.90;;;;;;4194152;28;20197;-70
2022/05/22 04:58:14;;;;;;;195.63;44.53;;;8.50;99.90;;;;;;4194732;28;20176;-70
2022/05/22 05:00:16;;;;;;;2.63;1.80;;;8.50;99.90;;;;;;4194737;28;20209;-70
2022/05/22 05:02:16;;;;;;;2.67;1.60;;;8.50;99.90;;;;;;4194826;28;20474;-70
2022/05/22 05:04:17;;;;;;;2.97;1.60;;;8.50;99.90;;;;;;4194791;28;20911;-70
2022/05/22 05:06:17;;;;;;;2.47;1.43;;;8.60;99.90;;;;;;4194302;28;20194;-70
2022/05/22 05:08:18;;;;;;;3.90;1.67;;;8.60;99.90;;;;;;4194743;28;20187;-71
2022/05/22 05:10:18;;;;;;;4.33;2.63;;;8.50;99.90;;;;;;4194636;28;20179;-69
2022/05/22 05:12:19;;;;;;;4.10;2.50;;;8.70;99.90;;;;;;4193274;28;20825;-70
2022/05/22 05:14:19;;;;;;;3.17;2.20;;;8.70;99.90;;;;;;4194335;28;20322;-70
2022/05/22 05:16:21;;;;;;;2.80;1.90;;;8.60;99.90;;;;;;4193969;28;20203;-69
2022/05/22 05:18:22;;;;;;;2.00;1.73;;;8.60;99.90;;;;;;4194441;28;20175;-70
2022/05/22 05:20:25;;;;;;;1.60;1.47;;;8.70;99.90;;;;;;4194751;28;21032;-70
2022/05/22 05:22:30;;;;;;;2.00;1.80;;;8.80;99.90;;;;;;4194775;28;20200;-70
2022/05/22 05:24:30;;;;;;;1.67;1.50;;;8.80;99.90;;;;;;4194538;28;20176;-70
2022/05/22 05:26:31;;;;;;;1999.90;999.90;;;8.80;99.90;;;;;;4194033;28;20263;-70
2022/05/22 05:28:32;;;;;;;1999.90;999.90;;;8.90;99.90;;;;;;4194588;28;20187;-70
2022/05/22 05:30:32;;;;;;;1999.90;999.90;;;8.90;99.90;;;;;;4194561;28;20186;-70
2022/05/22 05:32:33;;;;;;;1999.90;999.90;;;9.00;99.90;;;;;;4194792;28;20250;-70
2022/05/22 05:34:33;;;;;;;1999.90;999.90;;;9.10;99.90;;;;;;4194626;28;20229;-70
2022/05/22 05:36:34;;;;;;;1999.90;999.90;;;9.10;99.90;;;;;;4193972;28;20231;-70
2022/05/22 05:38:35;;;;;;;1999.90;999.90;;;9.20;99.90;;;;;;4194522;28;20255;-70
2022/05/22 05:40:36;;;;;;;1999.90;999.90;;;9.30;99.90;;;;;;4194535;28;20228;-70
2022/05/22 05:42:37;;;;;;;1999.90;999.90;;;9.30;99.90;;;;;;4194819;28;20236;-70
2022/05/22 05:44:37;;;;;;;1.30;1.20;;;9.40;99.90;;;;;;4196219;28;20554;-70
2022/05/22 05:46:39;;;;;;;3.77;1.30;;;9.50;99.90;;;;;;4197290;28;20225;-70
2022/05/22 05:48:39;;;;;;;3.77;1.60;;;9.60;99.90;;;;;;4198321;28;20725;-70
2022/05/22 05:50:41;;;;;;;3.10;1.50;;;9.70;99.90;;;;;;4197976;28;20473;-69
2022/05/22 05:52:41;;;;;;;1.43;1.33;;;9.80;99.90;;;;;;4197841;28;20236;-69
2022/05/22 05:54:42;;;;;;;2.30;1.20;;;9.90;99.90;;;;;;4197715;28;20178;-70
2022/05/22 05:56:42;;;;;;;1.83;1.30;;;10.10;99.90;;;;;;4196934;28;20203;-69
2022/05/22 05:58:43;;;;;;;1.60;1.50;;;10.10;99.90;;;;;;4197717;28;20179;-70
2022/05/22 06:00:44;;;;;;;2.70;1.33;;;10.10;99.90;;;;;;4197392;28;20178;-70
2022/05/22 06:02:45;;;;;;;3.70;1.73;;;10.20;99.90;;;;;;4197590;28;20210;-70
2022/05/22 06:04:46;;;;;;;1.40;1.30;;;10.30;99.90;;;;;;4197698;28;20643;-70
2022/05/22 06:06:46;;;;;;;3.10;1.70;;;10.30;99.90;;;;;;4196987;28;20648;-70
2022/05/22 06:08:47;;;;;;;3.10;1.33;;;10.40;99.90;;;;;;4197671;28;20729;-70
2022/05/22 06:10:48;;;;;;;2.60;1.53;;;10.50;99.90;;;;;;4197507;28;20280;-70
2022/05/22 06:12:48;;;;;;;1.20;1.10;;;10.60;99.90;;;;;;4197051;28;20222;-70
2022/05/22 06:14:49;;;;;;;2.43;1.30;;;10.90;99.90;;;;;;4197481;28;20190;-70
2022/05/22 06:16:50;;;;;;;2.00;1.60;;;11.00;99.90;;;;;;4196861;28;20594;-70
2022/05/22 06:18:50;;;;;;;3.93;1.40;;;11.20;99.90;;;;;;4197510;28;20176;-70
2022/05/22 06:20:51;;;;;;;1.73;1.27;;;11.40;99.50;;;;;;4197262;28;20219;-70
2022/05/22 06:22:51;;;;;;;1.67;1.40;;;11.50;99.60;;;;;;4197284;28;20652;-70
2022/05/22 06:24:53;;;;;;;1.50;1.40;;;11.60;99.40;;;;;;4197383;28;20182;-70
2022/05/22 06:26:53;;;;;;;1.83;1.53;;;11.70;99.30;;;;;;4196684;28;20168;-69
2022/05/22 06:28:54;;;;;;;2.17;1.40;;;11.80;98.90;;;;;;4197321;28;20180;-70
2022/05/22 06:30:54;;;;;;;1.30;1.20;;;11.90;99.00;;;;;;4197101;28;20176;-70
2022/05/22 06:32:55;;;;;;;3.13;1.40;;;12.00;98.50;;;;;;4197152;28;20200;-70
2022/05/22 06:34:58;;;;;;;2.13;1.27;;;12.10;97.70;;;;;;4197071;28;20263;-70
2022/05/22 06:37:02;;;;;;;1.33;1.10;;;12.30;97.00;;;;;;4196781;28;20229;-70
2022/05/22 06:41:22;;;;;;;2.13;1.13;;;12.60;96.00;;;;;;4197110;28;20232;-70
2022/05/22 06:43:23;;;;;;;1.57;0.90;;;12.90;94.80;;;;;;4197302;28;20176;-70
2022/05/22 06:45:25;;;;;;;1.10;1.00;;;13.10;93.50;;;;;;4196362;28;20599;-70
2022/05/22 06:47:28;;;;;;;1.20;1.10;;;13.50;91.60;;;;;;4197269;28;20651;-70
2022/05/22 06:49:28;;;;;;;1.83;0.90;;;13.80;90.70;;;;;;4196892;28;20226;-70
2022/05/22 06:51:29;;;;;;;1.20;0.90;;;13.90;90.20;;;;;;4196878;28;20180;-70
2022/05/22 06:53:29;;;;;;;111.10;9.70;;;14.10;90.30;;;;;;4196886;28;20187;-70
2022/05/22 06:55:30;;;;;;;1.53;0.83;;;14.00;90.30;;;;;;4195909;28;20206;-70
2022/05/22 06:57:31;;;;;;;1.63;1.30;;;14.20;86.50;;;;;;4196755;28;20190;-70
2022/05/22 06:59:31;;;;;;;5.87;1.00;;;14.50;86.30;;;;;;4196567;28;20176;-70
2022/05/22 07:01:32;;;;;;;2.83;1.20;;;14.70;84.80;;;;;;4196237;28;20278;-71
2022/05/22 07:03:35;;;;;;;1.40;0.90;;;14.80;82.90;;;;;;4196578;28;20176;-70
2022/05/22 07:05:35;;;;;;;1.60;0.93;;;14.90;83.60;;;;;;4195828;28;20182;-70
2022/05/22 07:07:36;;;;;;;1.40;0.97;;;15.10;81.30;;;;;;4196046;28;20658;-70
2022/05/22 07:09:37;;;;;;;1.90;0.93;;;15.20;82.80;;;;;;4196480;28;20175;-70
2022/05/22 07:11:40;;;;;;;2.67;1.00;;;15.30;76.00;;;;;;4196449;28;20207;-71
2022/05/22 07:13:41;;;;;;;1.03;0.93;;;15.60;77.30;;;;;;4196507;28;20184;-70
2022/05/22 07:15:41;;;;;;;1.00;0.87;;;15.80;78.30;;;;;;4195555;28;20686;-68
2022/05/22 07:17:42;;;;;;;3.00;0.80;;;16.10;74.10;;;;;;4196151;28;20214;-70
2022/05/22 07:19:43;;;;;;;2.83;2.30;;;16.30;73.30;;;;;;4196406;28;20551;-70
2022/05/22 07:21:44;;;;;;;69.27;4.33;;;16.50;72.50;;;;;;4196052;28;20713;-70
2022/05/22 07:23:45;;;;;;;1999.90;999.90;;;16.90;68.30;;;;;;4196163;28;20168;-70
2022/05/22 07:25:45;;;;;;;1999.90;999.90;;;17.10;65.90;;;;;;4195509;28;20888;-70
2022/05/22 07:27:46;;;;;;;1999.90;999.90;;;17.20;61.30;;;;;;4196094;28;20179;-70
2022/05/22 07:29:47;;;;;;;2.27;1.03;;;17.30;62.00;;;;;;4196128;28;20616;-70
2022/05/22 07:31:47;;;;;;;1.63;0.90;;;17.50;61.30;;;;;;4195986;28;20195;-70
2022/05/22 07:33:48;;;;;;;1.20;0.80;;;17.80;63.80;;;;;;4195963;28;20184;-70
2022/05/22 07:35:56;;;;;;;1.10;0.80;;;17.80;63.90;;;;;;4195367;28;20238;-69
2022/05/22 07:37:57;;;;;;;2.10;1.00;;;18.10;59.00;;;;;;4195828;28;20257;-70
2022/05/22 07:39:57;;;;;;;1.43;0.90;;;18.50;56.30;;;;;;4195822;28;20176;-70
2022/05/22 07:41:58;;;;;;;1.37;1.03;;;18.80;57.70;;;;;;4195827;28;20667;-70
2022/05/22 07:43:59;;;;;;;1.30;0.90;;;19.10;55.90;;;;;;4195772;28;20179;-71
2022/05/22 07:46:00;;;;;;;0.90;0.90;;;18.90;57.30;;;;;;4195091;28;20179;-69
2022/05/22 07:48:00;;;;;;;3.80;1.07;;;19.10;54.20;;;;;;4196194;28;20782;-69
2022/05/22 07:50:16;;;;;;;1.43;1.10;;;19.10;55.70;;;;;;4195975;28;20176;-69
2022/05/22 07:52:17;;;;;;;0.80;0.80;;;19.20;57.60;;;;;;4195935;28;20249;-69
2022/05/22 07:54:17;;;;;;;0.93;0.90;;;19.40;58.30;;;;;;4195668;28;20729;-70
2022/05/22 07:56:22;;;;;;;1.93;0.90;;;19.70;52.40;;;;;;4195155;28;20219;-69
2022/05/22 07:58:25;;;;;;;1.10;1.00;;;19.80;49.80;;;;;;4195799;28;20176;-69
2022/05/22 08:00:25;;;;;;;1.17;0.80;;;20.20;47.60;;;;;;4195480;28;20184;-70
2022/05/22 08:02:26;;;;;;;0.97;0.90;;;20.10;47.60;;;;;;4195709;28;20196;-69
2022/05/22 08:04:26;;;;;;;1.33;1.07;;;20.20;50.80;;;;;;4195551;28;20176;-69
2022/05/22 08:06:27;;;;;;;1.70;1.00;;;20.40;50.30;;;;;;4194349;28;20556;-69
2022/05/22 08:08:28;;;;;;;1.53;0.80;;;20.20;53.80;;;;;;4194799;28;20184;-69
2022/05/22 08:10:28;;;;;;;2.13;1.03;;;20.30;51.90;;;;;;4195293;28;20180;-69
2022/05/22 08:12:29;;;;;;;3.10;1.10;;;20.40;53.90;;;;;;4195258;28;20839;-69
2022/05/22 08:14:29;;;;;;;1.07;0.97;;;20.30;56.30;;;;;;4195312;28;20581;-69
2022/05/22 08:16:30;;;;;;;1.30;1.00;;;20.40;49.00;;;;;;4194341;28;20207;-70
2022/05/22 08:18:31;;;;;;;1.80;1.10;;;20.40;52.40;;;;;;4195292;28;20600;-70
2022/05/22 08:20:36;;;;;;;1.83;1.43;;;20.50;50.80;;;;;;4193880;28;20278;-69
2022/05/22 08:22:36;;;;;;;2.50;1.10;;;20.40;47.30;;;;;;4195343;28;20204;-69
2022/05/22 08:24:37;;;;;;;4.57;0.90;;;20.30;50.20;;;;;;4195308;28;20183;-69
2022/05/22 08:26:37;;;;;;;1.10;1.00;;;20.30;48.10;;;;;;4194840;28;20182;-69
2022/05/22 08:28:38;;;;;;;2.17;1.20;;;20.30;49.70;;;;;;4195451;28;20203;-69
2022/05/22 08:30:39;;;;;;;1.47;1.33;;;20.20;49.20;;;;;;4195273;28;20183;-69
2022/05/22 08:32:42;;;;;;;2.07;1.00;;;20.00;50.80;;;;;;4195128;28;20206;-69
2022/05/22 08:34:42;;;;;;;1.73;1.13;;;19.50;50.20;;;;;;4195146;28;20180;-69
2022/05/22 08:36:45;;;;;;;1.10;1.00;;;19.30;52.20;;;;;;4194489;28;20557;-69
2022/05/22 08:38:45;;;;;;;1.07;0.90;;;19.40;51.60;;;;;;4195156;28;20174;-69
2022/05/22 08:40:56;;;;;;;0.90;0.87;;;19.70;50.60;;;;;;4195173;28;20180;-69
2022/05/22 08:43:27;;;;;;;2.00;1.17;;;19.60;50.80;;;;;;4195253;28;20202;-68
2022/05/22 08:45:46;;;;;;;1.23;0.90;;;19.80;51.70;;;;;;4194700;28;20276;-69
2022/05/22 08:47:55;;;;;;;1.40;0.93;;;19.90;49.50;;;;;;4195331;28;20159;-69
2022/05/22 08:50:03;;;;;;;1.57;1.10;;;19.60;50.00;;;;;;4195062;28;20179;-69
2022/05/22 08:52:09;;;;;;;1.60;1.00;;;19.60;51.10;;;;;;4195476;28;20302;-69
2022/05/22 08:54:33;;;;;;;1.00;1.00;;;19.80;50.10;;;;;;4194909;28;20187;-68
2022/05/22 08:59:09;;;;;;;1.70;1.10;;;20.20;48.40;;;;;;4195106;28;20212;-69
2022/05/22 09:01:15;;;;;;;1.23;1.00;;;20.20;48.20;;;;;;4194910;28;20224;-69
2022/05/22 09:03:25;;;;;;;1.10;1.00;;;20.60;47.40;;;;;;4195356;28;20724;-68
2022/05/22 09:05:29;;;;;;;1.00;1.00;;;21.00;47.80;;;;;;4193988;28;20171;-68
2022/05/22 09:07:40;;;;;;;1.13;1.00;;;21.10;46.40;;;;;;4194784;28;20179;-69
2022/05/22 09:09:41;;;;;;;2.80;1.17;;;21.40;44.80;;;;;;4194964;28;20170;-69
2022/05/22 09:12:04;;;;;;;1.00;0.90;;;21.20;48.30;;;;;;4194768;28;20210;-69
2022/05/22 09:14:11;;;;;;;1.57;1.07;;;20.70;45.80;;;;;;4195132;28;20164;-69
2022/05/22 09:16:16;;;;;;;1.90;1.23;;;20.60;46.40;;;;;;4194372;28;20199;-69
2022/05/22 09:18:26;;;;;;;0.90;0.90;;;20.70;46.30;;;;;;4195165;28;20204;-69
2022/05/22 09:20:52;;;;;;;1.13;1.00;;;20.70;47.40;;;;;;4197951;28;20260;-69
2022/05/22 09:23:25;;;;;;;1.30;1.00;;;20.60;46.80;;;;;;4198596;28;20596;-69
2022/05/22 09:25:56;;;;;;;2.27;1.07;;;20.80;45.50;;;;;;4196391;28;20219;-69
2022/05/22 09:28:17;;;;;;;1.07;0.90;;;21.10;46.90;;;;;;4198079;28;20214;-69
2022/05/22 09:30:36;;;;;;;1.43;1.00;;;21.00;45.80;;;;;;4198126;28;20690;-68
2022/05/22 09:32:57;;;;;;;1.10;1.00;;;21.20;45.30;;;;;;4198165;28;20302;-69
2022/05/22 09:35:29;;;;;;;1.27;0.90;;;21.60;43.60;;;;;;4197861;28;20171;-69
2022/05/22 09:37:52;;;;;;;1.40;0.90;;;21.50;44.40;;;;;;4197971;28;20175;-68
2022/05/22 09:40:15;;;;;;;2.17;0.90;;;21.10;43.30;;;;;;4198086;28;20270;-68
2022/05/22 09:42:31;;;;;;;1.30;1.00;;;21.30;42.80;;;;;;4197948;28;20188;-69
2022/05/22 09:45:02;;;;;;;1.47;1.00;;;21.80;42.40;;;;;;4197898;28;20193;-69
2022/05/22 09:47:23;;;;;;;2.30;1.20;;;22.30;42.30;;;;;;4197486;28;20184;-69
2022/05/22 09:49:44;;;;;;;1.63;1.20;;;22.30;42.40;;;;;;4197606;28;20184;-69
2022/05/22 09:52:03;;;;;;;1.17;1.00;;;23.00;42.90;;;;;;4197667;28;20250;-68
2022/05/22 09:54:06;;;;;;;1.30;1.10;;;22.80;39.80;;;;;;4197644;28;20183;-69
2022/05/22 09:56:26;;;;;;;1.27;1.17;;;22.60;38.90;;;;;;4196473;28;20210;-70
2022/05/22 09:58:33;;;;;;;1.20;1.00;;;22.90;40.70;;;;;;4197402;28;20250;-70
2022/05/22 10:00:40;;;;;;;2.60;1.10;;;23.50;38.90;;;;;;4208073;28;20250;-71
2022/05/22 10:02:57;;;;;;;1.37;1.00;;;23.30;37.70;;;;;;4196646;28;20282;-69
2022/05/22 10:05:30;;;;;;;0.80;0.80;;;23.70;38.10;;;;;;4204153;28;20171;-70
2022/05/22 10:07:43;;;;;;;1.10;1.00;;;24.30;41.30;;;;;;4199206;28;20168;-71
2022/05/22 10:09:44;;;;;;;1.13;0.90;;;24.10;35.80;;;;;;4208994;28;20292;-70
2022/05/22 10:11:57;;;;;;;2.10;0.90;;;23.90;36.10;;;;;;4199964;28;20199;-70
2022/05/22 10:14:08;;;;;;;1.00;0.97;;;24.20;34.20;;;;;;4206950;28;20184;-69
2022/05/22 10:16:33;;;;;;;1.57;1.07;;;24.50;34.90;;;;;;4203723;28;20293;-69
2022/05/22 10:18:57;;;;;;;1.10;1.00;;;24.10;37.20;;;;;;4201475;28;20713;-69
2022/05/22 10:21:19;;;;;;;1.10;1.00;;;24.40;36.00;;;;;;4211259;28;20193;-69
2022/05/22 10:23:29;;;;;;;2.33;1.30;;;25.10;33.90;;;;;;4182111;28;20756;-68
2022/05/22 10:25:46;;;;;;;1.57;1.10;;;24.80;31.40;;;;;;4210353;28;20262;-69
2022/05/22 10:28:04;;;;;;;1.93;1.10;;;24.60;31.90;;;;;;4201315;28;20668;-71
2022/05/22 10:30:18;;;;;;;1.30;1.10;;;24.60;34.90;;;;;;4205425;28;20175;-76
2022/05/22 10:32:44;;;;;;;1.23;1.13;;;25.40;30.60;;;;;;4205674;28;20198;-69
2022/05/22 10:35:27;;;;;;;2.07;1.10;;;25.60;31.30;;;;;;4173494;28;20715;-68
2022/05/22 10:37:49;;;;;;;1.23;1.00;;;26.30;30.50;;;;;;4184216;28;20553;-68
2022/05/22 10:39:50;;;;;;;1.10;1.00;;;27.50;28.30;;;;;;4207868;28;20174;-69
2022/05/22 10:44:22;;;;;;;1.20;1.00;;;27.70;30.00;;;;;;4203798;28;20574;-69
2022/05/22 10:46:22;;;;;;;1.30;1.20;;;28.20;29.40;;;;;;4205373;28;20183;-70
2022/05/22 10:48:23;;;;;;;1.73;1.30;;;27.70;30.00;;;;;;4203187;28;20609;-68
2022/05/22 10:50:27;;;;;;;1.17;1.10;;;27.00;34.20;;;;;;4197132;28;20184;-68
2022/05/22 10:52:33;;;;;;;1.30;1.20;;;28.20;29.30;;;;;;4206896;28;20203;-68
2022/05/22 10:54:46;;;;;;;1.30;1.20;;;28.30;29.90;;;;;;4201854;28;20667;-67
2022/05/22 10:56:47;;;;;;;2.13;1.20;;;27.70;31.30;;;;;;4208699;28;20224;-68
2022/05/22 10:58:58;;;;;;;1.40;1.20;;;27.90;29.40;;;;;;4199792;28;20706;-69
2022/05/22 11:01:01;;;;;;;1.30;1.20;;;27.90;28.60;;;;;;4210787;28;20278;-68
2022/05/22 11:03:12;;;;;;;2.97;1.10;;;27.80;27.40;;;;;;4197696;28;20207;-68